Time;durP1;ratioP1;P1;durP2;ratioP2;P2;SDS_P1;SDS_P2;PMS_P1;PMS_P2;Temp;Humidity;BMP_temperature;BMP_pressure;BME280_temperature;BME280_humidity;BME280_pressure;Samples;Min_cycle;Max_cycle;Signal;HPM_P1;HPM_P2
2022/09/14 00:00:42;;;;;;;;;;;;;;;18.97;71.45;95639.59;5075835;28;19984;-76
2022/09/14 00:03:08;;;;;;;;;;;;;;;18.96;71.72;95642.53;5076424;28;20007;-77
2022/09/14 00:05:34;;;;;;;;;;;;;;;18.96;72.19;95642.53;5076133;28;20405;-77
2022/09/14 00:08:00;;;;;;;;;;;;;;;18.95;72.11;95635.66;5075200;28;19983;-77
2022/09/14 00:10:26;;;;;;;;;;;;;;;18.94;71.96;95631.41;5075928;28;19957;-79
2022/09/14 00:12:52;;;;;;;;;;;;;;;18.93;71.97;95624.53;5075529;28;19955;-78
2022/09/14 00:15:18;;;;;;;;;;;;;;;18.94;72.28;95618.13;5076354;28;19968;-77
2022/09/14 00:17:44;;;;;;;;;;;;;;;18.93;72.43;95613.91;5075324;28;20044;-78
2022/09/14 00:20:10;;;;;;;;;;;;;;;18.93;72.91;95622.66;5075588;28;19980;-78
2022/09/14 00:22:36;;;;;;;;;;;;;;;18.91;72.79;95614.19;5075355;28;19956;-77
2022/09/14 00:25:02;;;;;;;;;;;;;;;18.92;72.82;95612.31;5057572;28;19961;-77
2022/09/14 00:27:28;;;;;;;;;;;;;;;18.91;72.97;95608.88;5075583;28;19957;-77
2022/09/14 00:29:54;;;;;;;;;;;;;;;18.90;72.64;95594.03;5075164;28;20418;-79
2022/09/14 00:32:20;;;;;;;;;;;;;;;18.89;73.02;95592.44;5074719;28;20340;-76
2022/09/14 00:34:46;;;;;;;;;;;;;;;18.86;73.00;95583.19;5075377;28;19951;-76
2022/09/14 00:37:12;;;;;;;;;;;;;;;18.87;72.94;95576.00;5075014;28;19988;-76
2022/09/14 00:39:37;;;;;;;;;;;;;;;18.84;73.40;95574.72;5075073;28;20007;-75
2022/09/14 00:42:04;;;;;;;;;;;;;;;18.83;73.42;95567.81;5074971;28;19979;-76
2022/09/14 00:44:30;;;;;;;;;;;;;;;18.82;73.55;95552.97;5074884;28;19954;-75
2022/09/14 00:46:58;;;;;;;;;;;;;;;18.82;73.10;95558.28;5075421;28;20015;-75
2022/09/14 00:49:26;;;;;;;;;;;;;;;18.82;73.24;95573.44;5075234;28;19958;-75
2022/09/14 00:51:52;;;;;;;;;;;;;;;18.81;73.81;95572.66;5074877;28;19963;-76
2022/09/14 00:54:19;;;;;;;;;;;;;;;18.80;73.85;95563.13;5074214;28;19962;-76
2022/09/14 00:56:46;;;;;;;;;;;;;;;18.80;73.30;95565.00;5074670;28;19960;-76
2022/09/14 00:59:15;;;;;;;;;;;;;;;18.80;73.50;95560.47;5074115;28;19974;-75
2022/09/14 01:01:40;;;;;;;;;;;;;;;18.79;75.79;95603.25;5073727;28;19951;-76
2022/09/14 01:04:06;;;;;;;;;;;;;;;18.76;74.62;95649.72;5074957;28;20299;-75
2022/09/14 01:06:39;;;;;;;;;;;;;;;18.69;82.71;95664.44;5074458;28;19966;-72
2022/09/14 01:09:23;;;;;;;;;;;;;;;18.45;85.64;95548.53;5074513;28;19958;-72
2022/09/14 01:11:58;;;;;;;;;;;;;;;18.26;85.16;95567.13;5060062;28;19947;-74
2022/09/14 01:14:30;;;;;;;;;;;;;;;18.14;88.00;95570.22;5074662;28;19959;-74
2022/09/14 01:17:09;;;;;;;;;;;;;;;18.02;87.52;95554.72;5063481;28;19982;-75
2022/09/14 01:19:51;;;;;;;;;;;;;;;17.97;87.11;95562.75;5074439;28;20427;-76
2022/09/14 01:22:19;;;;;;;;;;;;;;;17.99;87.51;95560.59;5074505;28;20327;-76
2022/09/14 01:24:50;;;;;;;;;;;;;;;18.02;88.17;95562.69;5074231;28;19962;-76
2022/09/14 01:27:30;;;;;;;;;;;;;;;18.03;89.80;95555.50;5073928;28;19962;-76
2022/09/14 01:30:00;;;;;;;;;;;;;;;18.02;89.57;95569.88;5074526;28;20327;-77
2022/09/14 01:32:30;;;;;;;;;;;;;;;17.98;91.20;95574.94;5074658;28;20332;-77
2022/09/14 01:34:55;;;;;;;;;;;;;;;17.95;91.11;95578.16;5074156;28;19949;-76
2022/09/14 01:37:25;;;;;;;;;;;;;;;17.93;95.60;95582.97;5074147;28;20468;-76
2022/09/14 01:39:53;;;;;;;;;;;;;;;17.91;96.84;95587.78;5074380;28;19961;-77
2022/09/14 01:42:22;;;;;;;;;;;;;;;17.89;97.53;95591.78;5074058;28;19965;-77
2022/09/14 01:44:50;;;;;;;;;;;;;;;17.88;95.99;95592.88;5074008;28;19964;-77
2022/09/14 01:47:20;;;;;;;;;;;;;;;17.87;100.00;95586.78;5074383;28;19959;-77
2022/09/14 01:49:51;;;;;;;;;;;;;;;17.86;97.03;95571.91;5074073;28;19966;-78
2022/09/14 01:52:30;;;;;;;;;;;;;;;17.87;97.93;95586.78;5073989;28;19958;-77
2022/09/14 01:54:59;;;;;;;;;;;;;;;17.87;98.71;95592.06;5074032;28;20350;-78
2022/09/14 01:57:30;;;;;;;;;;;;;;;17.87;97.41;95594.72;5073648;28;19954;-79
2022/09/14 02:00:00;;;;;;;;;;;;;;;17.89;97.71;95589.13;5074118;28;19968;-78
2022/09/14 02:02:26;;;;;;;;;;;;;;;17.91;96.87;95576.38;5073901;28;19949;-78
2022/09/14 02:04:56;;;;;;;;;;;;;;;17.91;97.62;95586.97;5055869;28;19951;-78
2022/09/14 02:07:23;;;;;;;;;;;;;;;17.93;96.93;95590.94;5073691;28;19958;-78
2022/09/14 02:09:50;;;;;;;;;;;;;;;17.95;100.00;95601.25;5073746;28;19956;-78
2022/09/14 02:12:16;;;;;;;;;;;;;;;17.93;98.38;95592.78;5073789;28;20017;-78
2022/09/14 02:14:43;;;;;;;;;;;;;;;17.93;98.64;95588.28;5073870;28;19970;-77
2022/09/14 02:17:09;;;;;;;;;;;;;;;17.93;96.90;95588.28;5073729;28;19985;-77
2022/09/14 02:19:39;;;;;;;;;;;;;;;17.94;99.00;95579.25;5073881;28;19975;-79
2022/09/14 02:22:05;;;;;;;;;;;;;;;17.95;94.75;95580.81;5073360;28;20497;-77
2022/09/14 02:24:31;;;;;;;;;;;;;;;17.97;95.17;95589.28;5073480;28;19960;-77
2022/09/14 02:26:57;;;;;;;;;;;;;;;18.01;94.09;95587.63;5073339;28;19987;-77
2022/09/14 02:29:23;;;;;;;;;;;;;;;18.03;94.24;95577.50;5073583;28;19962;-76
2022/09/14 02:31:49;;;;;;;;;;;;;;;18.04;93.99;95581.75;5073382;28;19965;-77
2022/09/14 02:34:33;;;;;;;;;;;;;;;18.08;94.98;95591.78;5073436;28;20443;-77
2022/09/14 02:37:05;;;;;;;;;;;;;;;18.07;94.93;95591.00;5062771;28;19953;-77
2022/09/14 02:39:31;;;;;;;;;;;;;;;18.08;94.81;95597.91;5073464;28;19962;-77
2022/09/14 02:42:03;;;;;;;;;;;;;;;18.08;95.07;95600.56;5073651;28;19949;-78
2022/09/14 02:44:44;;;;;;;;;;;;;;;18.09;95.03;95599.47;5073323;28;19965;-79
2022/09/14 02:47:39;;;;;;;;;;;;;;;18.10;95.25;95601.06;5073319;28;19968;-77
2022/09/14 02:50:20;;;;;;;;;;;;;;;18.11;94.85;95593.88;5018464;28;19958;-77
2022/09/14 02:52:58;;;;;;;;;;;;;;;18.11;95.29;95591.22;5062670;28;19951;-77
2022/09/14 02:55:28;;;;;;;;;;;;;;;18.12;95.69;95588.28;5058857;28;19955;-76
2022/09/14 02:58:03;;;;;;;;;;;;;;;18.12;98.61;95575.03;5073736;28;19971;-77
2022/09/14 03:00:30;;;;;;;;;;;;;;;18.09;98.22;95572.94;5072920;28;19979;-78
2022/09/14 03:02:56;;;;;;;;;;;;;;;18.08;100.00;95570.56;5073185;28;19957;-73
2022/09/14 03:05:22;;;;;;;;;;;;;;;18.01;99.76;95557.66;5073023;28;19960;-74
2022/09/14 03:07:48;;;;;;;;;;;;;;;17.97;100.00;95551.34;5073803;28;19959;-75
2022/09/14 03:10:14;;;;;;;;;;;;;;;17.97;100.00;95554.78;5073400;28;19961;-75
2022/09/14 03:12:40;;;;;;;;;;;;;;;17.93;100.00;95550.34;5073039;28;20345;-75
2022/09/14 03:15:06;;;;;;;;;;;;;;;17.89;100.00;95558.09;5072958;28;20045;-77
2022/09/14 03:17:32;;;;;;;;;;;;;;;17.89;100.00;95557.28;5073190;28;19998;-77
2022/09/14 03:19:58;;;;;;;;;;;;;;;17.91;99.52;95555.97;5073039;28;20071;-77
2022/09/14 03:22:24;;;;;;;;;;;;;;;17.93;100.00;95561.75;5072929;28;19963;-77
2022/09/14 03:24:50;;;;;;;;;;;;;;;17.94;99.13;95557.25;5074748;28;19960;-77
2022/09/14 03:27:16;;;;;;;;;;;;;;;17.96;99.53;95563.81;5076873;28;19962;-77
2022/09/14 03:29:42;;;;;;;;;;;;;;;17.99;98.68;95562.47;5076773;28;19966;-76
2022/09/14 03:32:09;;;;;;;;;;;;;;;17.99;98.26;95546.53;5076865;28;19997;-77
2022/09/14 03:34:35;;;;;;;;;;;;;;;18.01;99.02;95553.13;5076510;28;20428;-76
2022/09/14 03:37:01;;;;;;;;;;;;;;;18.04;98.38;95557.88;5076289;28;19965;-76
2022/09/14 03:39:27;;;;;;;;;;;;;;;18.04;98.60;95555.22;5058402;28;20018;-76
2022/09/14 03:41:53;;;;;;;;;;;;;;;18.05;97.84;95542.75;5076401;28;20020;-76
2022/09/14 03:44:19;;;;;;;;;;;;;;;18.08;98.58;95547.50;5076097;28;20437;-77
2022/09/14 03:46:45;;;;;;;;;;;;;;;18.06;100.00;95536.38;5076326;28;20289;-76
2022/09/14 03:49:11;;;;;;;;;;;;;;;18.04;100.00;95533.22;5076246;28;19971;-77
2022/09/14 03:51:37;;;;;;;;;;;;;;;18.03;99.25;95523.69;5076013;28;19959;-76
2022/09/14 03:54:03;;;;;;;;;;;;;;;18.03;98.70;95519.16;5076356;28;19966;-76
2022/09/14 03:56:29;;;;;;;;;;;;;;;18.04;99.43;95525.25;5075939;28;19984;-76
2022/09/14 03:58:55;;;;;;;;;;;;;;;18.05;99.67;95518.88;5075915;28;19970;-77
2022/09/14 04:01:22;;;;;;;;;;;;;;;18.04;99.18;95512.78;5076163;28;20010;-74
2022/09/14 04:03:48;;;;;;;;;;;;;;;18.04;100.00;95509.34;5075772;28;19955;-75
2022/09/14 04:06:15;;;;;;;;;;;;;;;18.00;100.00;95509.13;5076427;28;19986;-76
2022/09/14 04:08:42;;;;;;;;;;;;;;;17.99;99.76;95506.75;5075903;28;19956;-76
2022/09/14 04:11:09;;;;;;;;;;;;;;;17.99;100.00;95520.03;5059691;28;19956;-77
2022/09/14 04:13:35;;;;;;;;;;;;;;;17.96;100.00;95521.38;5075970;28;19955;-76
2022/09/14 04:16:01;;;;;;;;;;;;;;;17.95;100.00;95524.31;5075227;28;19979;-80
2022/09/14 04:18:27;;;;;;;;;;;;;;;17.93;100.00;95516.66;5075534;28;19966;-76
2022/09/14 04:20:56;;;;;;;;;;;;;;;17.93;100.00;95526.47;5075475;28;20033;-77
2022/09/14 04:23:22;;;;;;;;;;;;;;;17.91;100.00;95526.78;5075702;28;19962;-77
2022/09/14 04:25:48;;;;;;;;;;;;;;;17.93;100.00;95537.06;5075471;28;20046;-77
2022/09/14 04:28:14;;;;;;;;;;;;;;;17.94;100.00;95538.66;5075563;28;19959;-76
2022/09/14 04:30:40;;;;;;;;;;;;;;;17.94;100.00;95531.50;5075551;28;19960;-77
2022/09/14 04:33:06;;;;;;;;;;;;;;;17.96;100.00;95533.88;5075140;28;20048;-79
2022/09/14 04:35:32;;;;;;;;;;;;;;;17.97;100.00;95527.47;5075178;28;19989;-77
2022/09/14 04:37:58;;;;;;;;;;;;;;;17.94;100.00;95538.66;5075097;28;19954;-77
2022/09/14 04:40:23;;;;;;;;;;;;;;;17.93;100.00;95539.72;5075492;28;19977;-78
2022/09/14 04:42:49;;;;;;;;;;;;;;;17.93;100.00;95548.50;5057665;28;19997;-78
2022/09/14 04:45:15;;;;;;;;;;;;;;;17.94;100.00;95550.06;5075197;28;20002;-78
2022/09/14 04:47:41;;;;;;;;;;;;;;;17.95;100.00;95545.53;5075403;28;20006;-78
2022/09/14 04:50:07;;;;;;;;;;;;;;;17.96;100.00;95547.13;5074943;28;19992;-79
2022/09/14 04:52:33;;;;;;;;;;;;;;;17.93;100.00;95553.81;5074821;28;20031;-83
2022/09/14 04:54:59;;;;;;;;;;;;;;;17.94;100.00;95541.31;5074688;28;20017;-80
2022/09/14 04:57:25;;;;;;;;;;;;;;;17.91;100.00;95525.97;5074798;28;20005;-81
2022/09/14 04:59:50;;;;;;;;;;;;;;;17.90;100.00;95533.16;5057041;28;19975;-79
2022/09/14 05:02:16;;;;;;;;;;;;;;;17.90;100.00;95541.09;5074713;28;20446;-77
2022/09/14 05:04:42;;;;;;;;;;;;;;;17.92;100.00;95538.94;5074602;28;19958;-77
2022/09/14 05:07:08;;;;;;;;;;;;;;;17.94;100.00;95541.31;5074472;28;20300;-78
2022/09/14 05:09:34;;;;;;;;;;;;;;;17.94;100.00;95538.66;5074906;28;20378;-77
2022/09/14 05:12:00;;;;;;;;;;;;;;;17.93;100.00;95537.06;5074413;28;20078;-78
2022/09/14 05:14:26;;;;;;;;;;;;;;;17.95;100.00;95546.31;5074480;28;19961;-78
2022/09/14 05:16:52;;;;;;;;;;;;;;;17.96;100.00;95537.31;5074434;28;19981;-77
2022/09/14 05:19:18;;;;;;;;;;;;;;;17.98;100.00;95537.81;5074126;28;19983;-78
2022/09/14 05:21:44;;;;;;;;;;;;;;;17.97;100.00;95544.16;5074318;28;19970;-77
2022/09/14 05:24:14;;;;;;;;;;;;;;;17.99;100.00;95554.50;5056291;28;19958;-78
2022/09/14 05:26:41;;;;;;;;;;;;;;;18.01;100.00;95544.41;5074638;28;19955;-77
2022/09/14 05:29:10;;;;;;;;;;;;;;;18.00;100.00;95543.63;5074374;28;20029;-78
2022/09/14 05:31:36;;;;;;;;;;;;;;;18.00;100.00;95545.47;5074073;28;19961;-77
2022/09/14 05:34:02;;;;;;;;;;;;;;;18.02;100.00;95546.78;5074398;28;19961;-78
2022/09/14 05:36:28;;;;;;;;;;;;;;;18.01;100.00;95547.06;5074071;28;19980;-80
2022/09/14 05:38:56;;;;;;;;;;;;;;;18.02;100.00;95540.69;5074381;28;19968;-77
2022/09/14 05:41:22;;;;;;;;;;;;;;;18.02;100.00;95535.38;5073895;28;19968;-77
2022/09/14 05:43:48;;;;;;;;;;;;;;;18.04;100.00;95533.22;5074021;28;20028;-77
2022/09/14 05:46:15;;;;;;;;;;;;;;;18.05;100.00;95527.59;5074052;28;20357;-77
2022/09/14 05:48:41;;;;;;;;;;;;;;;18.07;100.00;95531.84;5073401;28;19982;-77
2022/09/14 05:51:12;;;;;;;;;;;;;;;18.09;100.00;95532.34;5074151;28;19972;-77
2022/09/14 05:53:38;;;;;;;;;;;;;;;18.11;100.00;95544.25;5074226;28;19960;-77
2022/09/14 05:56:06;;;;;;;;;;;;;;;18.13;100.00;95536.00;5074003;28;19956;-77
2022/09/14 05:58:32;;;;;;;;;;;;;;;18.15;100.00;95532.00;5073747;28;20427;-77
2022/09/14 06:00:58;;;;;;;;;;;;;;;18.17;100.00;95539.66;5073879;28;20476;-77
2022/09/14 06:03:24;;;;;;;;;;;;;;;18.18;100.00;95536.72;5073798;28;20028;-77
2022/09/14 06:05:53;;;;;;;;;;;;;;;18.19;100.00;95551.56;5073714;28;19959;-77
2022/09/14 06:08:19;;;;;;;;;;;;;;;18.23;100.00;95549.91;5073579;28;19963;-77
2022/09/14 06:10:45;;;;;;;;;;;;;;;18.26;100.00;95553.84;5073928;28;20478;-77
2022/09/14 06:13:11;;;;;;;;;;;;;;;18.28;100.00;95564.97;5055860;28;19964;-77
2022/09/14 06:15:37;;;;;;;;;;;;;;;18.29;100.00;95569.22;5074070;28;20419;-77
2022/09/14 06:18:03;;;;;;;;;;;;;;;18.30;100.00;95560.16;5073070;28;20347;-77
2022/09/14 06:20:29;;;;;;;;;;;;;;;18.30;100.00;95562.81;5073453;28;20445;-77
2022/09/14 06:22:55;;;;;;;;;;;;;;;18.31;100.00;95572.38;5073403;28;19966;-77
2022/09/14 06:25:22;;;;;;;;;;;;;;;18.32;100.00;95568.63;5073729;28;19959;-77
2022/09/14 06:27:48;;;;;;;;;;;;;;;18.34;100.00;95571.78;5073347;28;19958;-77
2022/09/14 06:30:15;;;;;;;;;;;;;;;18.35;100.00;95562.75;5073377;28;20019;-77
2022/09/14 06:32:41;;;;;;;;;;;;;;;18.36;100.00;95556.34;5073425;28;19984;-77
2022/09/14 06:35:07;;;;;;;;;;;;;;;18.37;100.00;95541.22;5073422;28;19960;-77
2022/09/14 06:37:33;;;;;;;;;;;;;;;18.38;100.00;95548.09;5073246;28;19962;-77
2022/09/14 06:39:59;;;;;;;;;;;;;;;18.42;100.00;95560.50;5055509;28;20008;-77
2022/09/14 06:42:27;;;;;;;;;;;;;;;18.46;100.00;95556.19;5071968;28;19959;-76
2022/09/14 06:44:53;;;;;;;;;;;;;;;18.52;100.00;95559.56;5073554;28;19957;-77
2022/09/14 06:47:19;;;;;;;;;;;;;;;18.59;100.00;95561.84;5073557;28;20006;-77
2022/09/14 06:49:45;;;;;;;;;;;;;;;18.64;100.00;95564.41;5073125;28;19987;-76
2022/09/14 06:52:11;;;;;;;;;;;;;;;18.73;100.00;95564.53;5073555;28;20073;-77
2022/09/14 06:54:37;;;;;;;;;;;;;;;18.79;100.00;95566.88;5073197;28;20338;-77
2022/09/14 06:57:04;;;;;;;;;;;;;;;18.85;100.00;95572.84;5073737;28;20000;-76
2022/09/14 06:59:30;;;;;;;;;;;;;;;18.90;100.00;95564.81;5074325;28;19953;-77
2022/09/14 07:01:56;;;;;;;;;;;;;;;18.96;100.00;95568.97;5077202;28;20003;-77
2022/09/14 07:04:23;;;;;;;;;;;;;;;19.07;100.00;95569.56;5077290;28;20487;-77
2022/09/14 07:06:49;;;;;;;;;;;;;;;19.15;100.00;95568.88;5075870;28;19964;-77
2022/09/14 07:09:16;;;;;;;;;;;;;;;19.20;100.00;95574.09;5076971;28;19959;-76
2022/09/14 07:11:42;;;;;;;;;;;;;;;19.26;100.00;95580.91;5077369;28;19955;-77
2022/09/14 07:14:08;;;;;;;;;;;;;;;19.35;100.00;95575.69;5076932;28;20303;-77
2022/09/14 07:16:35;;;;;;;;;;;;;;;19.46;100.00;95574.41;5077012;28;19998;-76
2022/09/14 07:19:03;;;;;;;;;;;;;;;19.55;100.00;95565.72;5076686;28;19972;-76
2022/09/14 07:21:30;;;;;;;;;;;;;;;19.59;100.00;95564.06;5076552;28;19967;-77
2022/09/14 07:23:56;;;;;;;;;;;;;;;19.68;100.00;95567.59;5076769;28;19956;-76
2022/09/14 07:26:23;;;;;;;;;;;;;;;19.79;100.00;95569.00;5076760;28;19953;-76
2022/09/14 07:28:51;;;;;;;;;;;;;;;19.96;100.00;95581.66;5067473;28;20005;-77
2022/09/14 07:31:22;;;;;;;;;;;;;;;20.15;100.00;95573.53;5076493;28;20361;-76
2022/09/14 07:33:50;;;;;;;;;;;;;;;20.34;100.00;95572.59;5076293;28;20434;-76
2022/09/14 07:36:16;;;;;;;;;;;;;;;20.46;100.00;95578.97;5076706;28;19976;-76
2022/09/14 07:38:42;;;;;;;;;;;;;;;20.57;100.00;95587.50;5076977;28;19965;-77
2022/09/14 07:41:08;;;;;;;;;;;;;;;20.57;100.00;95592.03;5076609;28;20439;-77
2022/09/14 07:43:34;;;;;;;;;;;;;;;20.65;100.00;95588.69;5076683;28;19960;-77
2022/09/14 07:46:01;;;;;;;;;;;;;;;20.78;100.00;95590.50;5058478;28;20398;-77
2022/09/14 07:48:27;;;;;;;;;;;;;;;20.97;100.00;95600.94;5076055;28;20400;-77
2022/09/14 07:51:03;;;;;;;;;;;;;;;21.14;100.00;95592.25;5058443;28;20008;-77
2022/09/14 07:53:29;;;;;;;;;;;;;;;21.30;100.00;95592.66;5076386;28;19953;-75
2022/09/14 07:55:59;;;;;;;;;;;;;;;21.40;100.00;95594.28;5075465;28;19972;-76
2022/09/14 07:58:26;;;;;;;;;;;;;;;21.53;99.19;95589.97;5076121;28;19963;-76
2022/09/14 08:00:56;;;;;;;;;;;;;;;21.64;96.71;95583.25;5075696;28;20317;-75
2022/09/14 08:03:22;;;;;;;;;;;;;;;21.75;98.00;95591.75;5075898;28;20310;-75
2022/09/14 08:05:48;;;;;;;;;;;;;;;21.83;97.70;95589.09;5076201;28;20017;-76
2022/09/14 08:08:15;;;;;;;;;;;;;;;21.91;94.92;95586.75;5075674;28;19965;-76
2022/09/14 08:10:40;;;;;;;;;;;;;;;21.96;95.75;95595.38;5075552;28;19970;-76
2022/09/14 08:13:06;;;;;;;;;;;;;;;21.95;94.61;95609.06;5075595;28;20016;-76
2022/09/14 08:15:32;;;;;;;;;;;;;;;21.93;92.84;95622.72;5075938;28;19972;-76
2022/09/14 08:17:58;;;;;;;;;;;;;;;21.86;94.56;95639.19;5075732;28;19992;-76
2022/09/14 08:20:24;;;;;;;;;;;;;;;21.77;95.47;95638.38;5041244;28;19984;-76
2022/09/14 08:22:50;;;;;;;;;;;;;;;21.65;92.76;95646.97;5075378;28;20049;-76
2022/09/14 08:25:16;;;;;;;;;;;;;;;21.57;95.25;95646.94;5075410;28;20320;-76
2022/09/14 08:27:42;;;;;;;;;;;;;;;21.49;95.61;95649.25;5075115;28;19996;-76
2022/09/14 08:30:09;;;;;;;;;;;;;;;21.43;97.30;95652.34;5075653;28;20396;-76
2022/09/14 08:32:34;;;;;;;;;;;;;;;21.36;97.81;95631.44;5075137;28;19996;-75
2022/09/14 08:35:01;;;;;;;;;;;;;;;21.33;97.07;95639.25;5075294;28;20419;-76
2022/09/14 08:37:27;;;;;;;;;;;;;;;21.31;97.56;95642.22;5075296;28;20330;-76
2022/09/14 08:39:52;;;;;;;;;;;;;;;21.32;98.48;95653.69;5075473;28;19972;-76
2022/09/14 08:42:21;;;;;;;;;;;;;;;21.45;100.00;95655.50;5074385;28;20307;-76
2022/09/14 08:44:53;;;;;;;;;;;;;;;21.58;97.22;95646.63;5056955;28;19962;-76
2022/09/14 08:47:22;;;;;;;;;;;;;;;21.68;94.99;95638.34;5074898;28;19969;-75
2022/09/14 08:50:04;;;;;;;;;;;;;;;21.79;95.23;95630.84;5075516;28;19959;-75
2022/09/14 08:52:33;;;;;;;;;;;;;;;21.96;94.74;95637.31;5074753;28;19958;-76
2022/09/14 08:54:59;;;;;;;;;;;;;;;22.10;94.64;95638.00;5075013;28;19984;-76
2022/09/14 08:57:25;;;;;;;;;;;;;;;22.28;93.35;95641.50;5075041;28;19960;-76
2022/09/14 09:00:18;;;;;;;;;;;;;;;22.30;90.80;95639.31;5074878;28;20001;-76
2022/09/14 09:03:02;;;;;;;;;;;;;;;22.24;91.62;95648.56;5070993;28;19963;-76
2022/09/14 09:05:28;;;;;;;;;;;;;;;22.12;93.24;95643.81;5074772;28;20327;-76
2022/09/14 09:08:07;;;;;;;;;;;;;;;22.09;93.36;95652.44;5074472;28;19958;-76
2022/09/14 09:10:36;;;;;;;;;;;;;;;22.08;95.79;95656.19;5074719;28;20421;-76
2022/09/14 09:13:04;;;;;;;;;;;;;;;22.08;91.74;95658.88;5074486;28;20330;-76
2022/09/14 09:15:38;;;;;;;;;;;;;;;22.08;89.78;95648.19;5074258;28;20301;-75
2022/09/14 09:18:11;;;;;;;;;;;;;;;22.01;90.74;95647.88;5074331;28;19994;-75
2022/09/14 09:20:46;;;;;;;;;;;;;;;21.95;90.19;95646.44;5074557;28;20310;-76
2022/09/14 09:23:11;;;;;;;;;;;;;;;22.02;92.96;95642.19;5073908;28;19956;-77
2022/09/14 09:25:44;;;;;;;;;;;;;;;22.12;93.99;95643.81;5074083;28;19949;-77
2022/09/14 09:28:12;;;;;;;;;;;;;;;22.19;91.37;95633.44;5074422;28;19970;-76
2022/09/14 09:30:40;;;;;;;;;;;;;;;22.25;90.60;95620.75;5074502;28;19973;-76
2022/09/14 09:33:06;;;;;;;;;;;;;;;22.29;89.74;95605.69;5074030;28;19963;-75
2022/09/14 09:35:32;;;;;;;;;;;;;;;22.34;88.77;95604.72;5074450;28;19971;-75
2022/09/14 09:37:58;;;;;;;;;;;;;;;22.35;88.15;95599.09;5073966;28;20421;-75
2022/09/14 09:40:29;;;;;;;;;;;;;;;22.33;86.53;95606.63;5073802;28;20000;-75
2022/09/14 09:43:05;;;;;;;;;;;;;;;22.37;89.16;95604.91;5073133;28;19967;-76
2022/09/14 09:45:46;;;;;;;;;;;;;;;22.42;89.28;95595.94;5073794;28;20327;-76
2022/09/14 09:48:13;;;;;;;;;;;;;;;22.47;87.53;95583.22;5074058;28;20352;-76
2022/09/14 09:51:08;;;;;;;;;;;;;;;22.51;87.46;95591.41;5074004;28;19956;-76
2022/09/14 09:53:36;;;;;;;;;;;;;;;22.61;87.50;95590.28;5050319;28;19959;-77
2022/09/14 09:56:03;;;;;;;;;;;;;;;22.70;86.11;95586.50;5073806;28;20331;-76
2022/09/14 09:58:36;;;;;;;;;;;;;;;22.80;87.08;95589.94;5074052;28;20336;-76
2022/09/14 10:01:05;;;;;;;;;;;;;;;22.86;84.52;95586.78;5074036;28;19974;-76
2022/09/14 10:03:33;;;;;;;;;;;;;;;22.93;83.39;95569.47;5073487;28;20462;-76
2022/09/14 10:06:09;;;;;;;;;;;;;;;22.92;85.76;95587.41;5074213;28;19975;-76
2022/09/14 10:08:39;;;;;;;;;;;;;;;22.95;81.87;95572.59;5073378;28;19955;-76
2022/09/14 10:11:05;;;;;;;;;;;;;;;22.97;80.82;95557.03;5073922;28;20381;-76
2022/09/14 10:13:33;;;;;;;;;;;;;;;23.01;79.25;95544.63;5073459;28;19959;-76
2022/09/14 10:16:13;;;;;;;;;;;;;;;23.11;79.45;95544.28;5073152;28;19991;-76
2022/09/14 10:18:47;;;;;;;;;;;;;;;23.20;77.42;95522.84;5073678;28;20358;-76
2022/09/14 10:21:15;;;;;;;;;;;;;;;23.27;81.40;95542.66;5073330;28;19978;-76
2022/09/14 10:23:41;;;;;;;;;;;;;;;23.33;79.73;95532.56;5073343;28;20450;-76
2022/09/14 10:26:10;;;;;;;;;;;;;;;23.38;79.13;95521.66;5073537;28;19967;-76
2022/09/14 10:28:37;;;;;;;;;;;;;;;23.43;81.33;95531.41;5073962;28;19977;-76
2022/09/14 10:31:18;;;;;;;;;;;;;;;23.47;79.05;95516.25;5038844;28;20375;-76
2022/09/14 10:33:45;;;;;;;;;;;;;;;23.51;76.49;95504.59;5075473;28;20408;-76
2022/09/14 10:36:16;;;;;;;;;;;;;;;23.54;76.96;95503.19;5076924;28;19960;-76
2022/09/14 10:38:52;;;;;;;;;;;;;;;23.58;75.76;95493.41;5077364;28;20356;-75
2022/09/14 10:41:18;;;;;;;;;;;;;;;23.64;76.82;95494.75;5077264;28;19983;-76
2022/09/14 10:43:47;;;;;;;;;;;;;;;23.71;77.40;95481.66;5077454;28;19959;-76
2022/09/14 10:46:18;;;;;;;;;;;;;;;23.78;77.79;95486.50;5077052;28;19965;-76
2022/09/14 10:48:47;;;;;;;;;;;;;;;23.83;73.99;95451.53;5077586;28;19963;-76
2022/09/14 10:51:22;;;;;;;;;;;;;;;23.90;74.28;95465.16;5077160;28;19972;-76
2022/09/14 10:53:58;;;;;;;;;;;;;;;23.97;74.59;95464.63;5077685;28;20321;-76
2022/09/14 10:56:47;;;;;;;;;;;;;;;24.03;71.45;95441.13;5076999;28;19957;-76
2022/09/14 10:59:27;;;;;;;;;;;;;;;24.19;70.89;95451.97;5062851;28;20368;-76
2022/09/14 11:02:09;;;;;;;;;;;;;;;24.26;70.75;95447.66;5077362;28;19978;-76
2022/09/14 11:04:53;;;;;;;;;;;;;;;24.41;70.68;95453.53;5077170;28;20417;-76
2022/09/14 11:07:23;;;;;;;;;;;;;;;24.45;67.45;95427.63;5076846;28;19973;-76
2022/09/14 11:10:15;;;;;;;;;;;;;;;24.45;69.83;95441.03;5076693;28;19963;-76
2022/09/14 11:13:01;;;;;;;;;;;;;;;24.46;66.81;95424.63;5073392;28;19965;-76
2022/09/14 11:15:40;;;;;;;;;;;;;;;24.66;69.65;95451.72;5062314;28;19969;-76
2022/09/14 11:18:24;;;;;;;;;;;;;;;25.00;68.59;95445.13;5075756;28;19992;-76
2022/09/14 11:20:49;;;;;;;;;;;;;;;25.19;66.42;95423.13;5076446;28;19994;-76
2022/09/14 11:23:23;;;;;;;;;;;;;;;25.15;65.63;95418.75;5076748;28;19967;-76
2022/09/14 11:25:53;;;;;;;;;;;;;;;25.11;67.70;95432.06;5076633;28;19985;-76
2022/09/14 11:28:25;;;;;;;;;;;;;;;25.06;64.25;95416.19;5076960;28;19961;-76
2022/09/14 11:30:59;;;;;;;;;;;;;;;25.00;64.17;95404.91;5076340;28;19959;-76
2022/09/14 11:33:37;;;;;;;;;;;;;;;24.90;64.51;95411.53;5076501;28;19970;-76
2022/09/14 11:36:09;;;;;;;;;;;;;;;24.85;64.67;95409.03;5076352;28;19966;-76
2022/09/14 11:38:40;;;;;;;;;;;;;;;24.73;64.38;95410.94;5076506;28;19962;-77
2022/09/14 11:41:06;;;;;;;;;;;;;;;24.65;66.31;95426.81;5076222;28;19976;-77
2022/09/14 11:43:41;;;;;;;;;;;;;;;24.58;64.48;95412.38;5075895;28;20433;-77
2022/09/14 11:46:10;;;;;;;;;;;;;;;24.49;66.10;95415.94;5075404;28;20425;-76
2022/09/14 11:48:57;;;;;;;;;;;;;;;24.41;66.72;95429.41;5075583;28;19959;-76
2022/09/14 11:51:31;;;;;;;;;;;;;;;24.32;67.91;95448.25;5074935;28;19975;-76
2022/09/14 11:53:58;;;;;;;;;;;;;;;24.24;67.16;95441.84;5076075;28;19967;-76
2022/09/14 11:56:28;;;;;;;;;;;;;;;24.21;68.64;95463.97;5076077;28;19975;-76
2022/09/14 11:58:56;;;;;;;;;;;;;;;24.16;68.45;95449.97;5075874;28;20327;-76
2022/09/14 12:01:30;;;;;;;;;;;;;;;24.09;69.61;95479.97;5076654;28;19989;-76
2022/09/14 12:03:58;;;;;;;;;;;;;;;23.97;70.98;95495.97;5075773;28;19957;-76
2022/09/14 12:06:27;;;;;;;;;;;;;;;23.83;72.35;95505.06;5075877;28;19963;-76
2022/09/14 12:08:53;;;;;;;;;;;;;;;23.62;74.97;95514.91;5062334;28;19963;-76
2022/09/14 12:11:24;;;;;;;;;;;;;;;23.42;75.91;95521.81;5076026;28;19956;-75
2022/09/14 12:14:29;;;;;;;;;;;;;;;23.24;77.33;95523.78;5075755;28;19962;-75
2022/09/14 12:17:05;;;;;;;;;;;;;;;22.96;79.46;95532.19;5027999;28;20006;-75
2022/09/14 12:19:33;;;;;;;;;;;;;;;22.76;80.98;95549.69;5075813;28;19961;-74
2022/09/14 12:22:17;;;;;;;;;;;;;;;22.58;81.58;95540.16;5075416;28;19978;-75
2022/09/14 12:24:43;;;;;;;;;;;;;;;22.41;83.92;95559.66;5075574;28;20014;-75
2022/09/14 12:27:21;;;;;;;;;;;;;;;22.24;85.07;95563.13;5075999;28;20437;-74
2022/09/14 12:29:47;;;;;;;;;;;;;;;22.06;85.02;95565.72;5075278;28;19954;-73
2022/09/14 12:32:27;;;;;;;;;;;;;;;21.92;87.68;95573.09;5075478;28;19958;-75
2022/09/14 12:35:11;;;;;;;;;;;;;;;21.74;88.46;95574.94;5075281;28;20329;-76
2022/09/14 12:37:37;;;;;;;;;;;;;;;21.62;89.99;95580.09;5075216;28;19957;-76
2022/09/14 12:40:18;;;;;;;;;;;;;;;21.52;91.69;95589.16;5075227;28;20011;-76
2022/09/14 12:42:44;;;;;;;;;;;;;;;21.44;89.64;95584.56;5057088;28;19976;-76
2022/09/14 12:45:29;;;;;;;;;;;;;;;21.35;91.64;95587.19;5074978;28;20435;-76
2022/09/14 12:47:54;;;;;;;;;;;;;;;21.27;91.98;95594.06;5074953;28;19958;-75
2022/09/14 12:50:21;;;;;;;;;;;;;;;21.16;92.57;95592.75;5074851;28;19957;-75
2022/09/14 12:53:00;;;;;;;;;;;;;;;21.09;94.14;95595.06;5075287;28;19971;-75